Flight Track Log - Related Links

Times and Time Zones

All times are in EST time to prevent confusion due to time zone crossing. See the N5098N flight status page for this flight to view local times or setup timezone preferences in your user account.

Time Position Orientation Groundspeed Altitude Reporting Facility
EST Latitude Longitude Course Direction KTS MPH feet Rate Location/Type
Wed 10:57:30 PM 39.1500 -77.1167 90° East 100 115 1,800  Level Potomac TRACON
Wed 10:58:24 PM 39.1500 -77.0833 90° East 114 131 2,200 250 Climbing Potomac TRACON
Wed 10:59:30 PM 39.1333 -77.0500 123° Southeast 128 147 2,300 48 Climbing Potomac TRACON
Wed 11:00:30 PM 39.1167 -77.0000 113° Southeast 133 153 2,300 -50 Level Potomac TRACON
Wed 11:01:30 PM 39.1000 -76.9667 123° Southeast 134 154 2,200 -105 Descending Potomac TRACON
Wed 11:02:24 PM 39.1000 -76.9167 90° East 131 151 2,100 -100 Descending Potomac TRACON
Wed 11:03:30 PM 39.0667 -76.8833 142° Southeast 119 137 2,000 -48 Descending Potomac TRACON
Wed 11:04:30 PM 39.0500 -76.8500 123° Southeast 121 139 2,000  Level Potomac TRACON
Wed 11:05:30 PM 39.0333 -76.8167 123° Southeast 119 137 2,000  Level Potomac TRACON
Wed 11:06:30 PM 39.0167 -76.7833 123° Southeast 115 132 2,000  Level Potomac TRACON
Wed 11:07:25 PM 39.0000 -76.7500 123° Southeast 112 129 2,000  Level Potomac TRACON
Wed 11:08:24 PM 38.9833 -76.7167 123° Southeast 111 128 2,000  Level Potomac TRACON
Wed 11:09:24 PM 38.9667 -76.7000 142° Southeast 112 129 2,000  Level Potomac TRACON
Wed 11:10:25 PM 38.9500 -76.6667 123° Southeast 113 130 2,000  Level Potomac TRACON
Wed 11:11:31 PM 38.9167 -76.6333 142° Southeast 115 132 2,000  Level Potomac TRACON
Wed 11:12:37 PM 38.9000 -76.6167 142° Southeast 114 131 2,000  Level Potomac TRACON
Wed 11:13:31 PM 38.8667 -76.6167 180° South 103 119 2,000  Level Potomac TRACON
Wed 11:14:32 PM 38.8500 -76.6167 180° South 98 113 2,000  Level Potomac TRACON
Wed 11:15:32 PM 38.8167 -76.6167 180° South 96 110 2,000  Level Potomac TRACON
Wed 11:16:32 PM 38.7833 -76.6000 159° South 99 114 2,000  Level Potomac TRACON
Wed 11:17:32 PM 38.7667 -76.6000 180° South 100 115 2,000  Level Potomac TRACON
Wed 11:18:38 PM 38.7333 -76.6000 180° South 100 115 2,000  Level Potomac TRACON
Wed 11:21:00 PM 38.7239 -76.5527 104° East  Level FlightAware Approximate
Wed 11:28:00 PM 38.6756 -76.3109 104° East  Level FlightAware Approximate
Wed 11:29:00 PM 38.6656 -76.2672 201° Southwest  Level FlightAware Approximate
Wed 11:30:00 PM 38.6397 -76.2802 201° Southwest  Level FlightAware Approximate
Wed 11:31:00 PM 38.6138 -76.2931 201° Southwest  Level FlightAware Approximate
Wed 11:32:00 PM 38.5873 -76.3040 194° South  Level FlightAware Approximate
Wed 11:33:00 PM 38.5603 -76.3126 194° South  Level FlightAware Approximate
Wed 11:34:00 PM 38.5333 -76.3211 194° South  Level FlightAware Approximate
Wed 11:35:00 PM 38.5063 -76.3297 194° South  Level FlightAware Approximate
Wed 11:36:00 PM 38.4793 -76.3382 194° South  Level FlightAware Approximate
Wed 11:37:00 PM 38.4523 -76.3468 194° South  Level FlightAware Approximate
Wed 11:38:00 PM 38.4253 -76.3553 194° South  Level FlightAware Approximate
Wed 11:39:00 PM 38.3982 -76.3638 194° South  Level FlightAware Approximate
Wed 11:40:00 PM 38.3712 -76.3723 194° South  Level FlightAware Approximate
Wed 11:41:00 PM 38.3442 -76.3808 194° South  Level FlightAware Approximate
Wed 11:42:00 PM 38.3172 -76.3894 194° South  Level FlightAware Approximate
Wed 11:43:00 PM 38.2902 -76.3979 194° South  Level FlightAware Approximate
Wed 11:44:00 PM 38.2923 -76.4239 296° West  Level FlightAware Approximate
Wed 11:45:00 PM 38.3044 -76.4559 296° West  Level FlightAware Approximate
Wed 11:46:00 PM 38.3164 -76.4878 296° West  Level FlightAware Approximate
Wed 11:47:00 PM 38.3284 -76.5199 296° West  Level FlightAware Approximate
Wed 11:48:00 PM 38.3404 -76.5519 296° West  Level FlightAware Approximate
Wed 11:49:00 PM 38.3524 -76.5839 296° West  Level FlightAware Approximate
Wed 11:50:00 PM 38.3644 -76.6159 296° West  Level FlightAware Approximate
Wed 11:51:00 PM 38.3764 -76.6479 295° West  Level FlightAware Approximate
Wed 11:52:00 PM 38.3896 -76.6791 303° West  Level FlightAware Approximate
Wed 11:53:00 PM 38.4000 -76.7000 303° West  Level FlightAware Approximate
Wed 11:54:00 PM 38.4000 -76.7000 303° West  Level FlightAware Approximate
Wed 11:55:00 PM 38.4000 -76.7000 303° West  Level FlightAware Approximate
Wed 11:56:00 PM 38.4000 -76.7000 303° West  Level FlightAware Approximate
Wed 11:57:00 PM 38.4000 -76.7000 303° West  Level FlightAware Approximate
Wed 11:58:00 PM 38.4000 -76.7000 303° West  Level FlightAware Approximate
Wed 11:59:00 PM 38.4000 -76.7000 303° West  Level FlightAware Approximate
Thu 12:00:00 AM 38.4000 -76.7000 303° West  Level FlightAware Approximate
Thu 12:01:00 AM 38.4000 -76.7000 303° West  Level FlightAware Approximate
Thu 12:02:00 AM 38.4000 -76.7000 303° West  Level FlightAware Approximate
Thu 12:03:00 AM 38.4000 -76.7000 303° West  Level FlightAware Approximate
Thu 12:04:00 AM 38.4000 -76.7000 303° West  Level FlightAware Approximate
Thu 12:05:00 AM 38.4000 -76.7000 303° West  Level FlightAware Approximate
Thu 12:06:00 AM 38.4000 -76.7000 303° West  Level FlightAware Approximate
Thu 12:07:00 AM 38.4000 -76.7000 303° West  Level FlightAware Approximate
Thu 12:08:00 AM 38.4000 -76.7000 303° West  Level FlightAware Approximate
Thu 12:09:00 AM 38.4000 -76.7000 303° West  Level FlightAware Approximate

Login

Don't have an account? Register now (free) for customized features, flight alerts, and more!